createdAt,value
2017-06-08T00:00:16.816Z,2.70
2017-06-08T00:02:45.107Z,2.40
2017-06-08T00:05:13.381Z,2.22
2017-06-08T00:07:41.666Z,1.90
2017-06-08T00:10:09.933Z,2.70
2017-06-08T00:12:38.212Z,2.28
2017-06-08T00:15:06.486Z,2.60
2017-06-08T00:17:34.763Z,2.42
2017-06-08T00:20:03.052Z,2.45
2017-06-08T00:22:31.328Z,2.20
2017-06-08T00:24:59.611Z,2.33
2017-06-08T00:27:27.908Z,2.50
2017-06-08T00:29:56.191Z,2.35
2017-06-08T00:32:24.466Z,2.85
2017-06-08T00:34:52.744Z,2.55
2017-06-08T00:37:21.016Z,2.10
2017-06-08T00:39:49.300Z,2.28
2017-06-08T00:42:17.568Z,2.65
2017-06-08T00:44:45.839Z,2.00
2017-06-08T00:47:14.132Z,2.50
2017-06-08T00:49:42.395Z,2.15
2017-06-08T00:52:10.671Z,2.30
2017-06-08T00:54:38.943Z,3.00
2017-06-08T00:57:07.227Z,2.55
2017-06-08T00:59:35.495Z,2.10
2017-06-08T01:02:03.785Z,2.42
2017-06-08T01:04:32.048Z,2.55
2017-06-08T01:07:01.102Z,2.37
2017-06-08T01:09:29.370Z,2.47
2017-06-08T01:11:57.657Z,2.55
2017-06-08T01:14:25.913Z,2.45
2017-06-08T01:16:54.207Z,2.40
2017-06-08T01:19:22.479Z,2.33
2017-06-08T01:21:50.762Z,2.80
2017-06-08T01:24:19.026Z,3.33
2017-06-08T01:26:47.310Z,2.80
2017-06-08T01:29:15.602Z,2.72
2017-06-08T01:31:43.874Z,2.50
2017-06-08T01:34:12.164Z,2.50
2017-06-08T01:36:40.429Z,2.58
2017-06-08T01:39:08.715Z,2.47
2017-06-08T01:41:36.992Z,2.62
2017-06-08T01:44:05.279Z,2.75
2017-06-08T01:46:33.551Z,2.78
2017-06-08T01:49:01.847Z,2.37
2017-06-08T01:51:30.884Z,2.30
2017-06-08T01:53:59.172Z,3.03
2017-06-08T01:56:27.436Z,2.08
2017-06-08T01:58:55.714Z,2.45
2017-06-08T02:01:23.991Z,2.37
2017-06-08T02:03:52.275Z,2.17
2017-06-08T02:06:20.544Z,2.42
2017-06-08T02:08:48.812Z,2.90
2017-06-08T02:11:17.093Z,2.40
2017-06-08T02:13:45.363Z,3.12
2017-06-08T02:16:13.653Z,2.80
2017-06-08T02:18:41.919Z,2.75
2017-06-08T02:21:10.203Z,2.70
2017-06-08T02:23:38.473Z,2.35
2017-06-08T02:26:06.755Z,2.10
2017-06-08T02:28:35.019Z,2.40
2017-06-08T02:31:03.302Z,2.60
2017-06-08T02:33:31.566Z,2.22
2017-06-08T02:35:59.854Z,2.70
2017-06-08T02:38:28.127Z,2.47
2017-06-08T02:40:56.428Z,2.40
2017-06-08T02:43:24.690Z,2.72
2017-06-08T02:45:52.954Z,2.05
2017-06-08T02:48:21.230Z,2.65
2017-06-08T02:50:49.502Z,3.53
2017-06-08T02:53:17.783Z,2.53
2017-06-08T02:55:46.058Z,2.40
2017-06-08T02:58:14.347Z,2.50
2017-06-08T03:00:42.615Z,2.55
2017-06-08T03:03:10.899Z,2.70
2017-06-08T03:05:39.171Z,2.90
2017-06-08T03:08:07.456Z,3.22
2017-06-08T03:10:35.745Z,2.95
2017-06-08T03:13:04.049Z,2.58
2017-06-08T03:15:32.605Z,2.95
2017-06-08T03:18:00.872Z,3.08
2017-06-08T03:20:29.172Z,2.40
2017-06-08T03:22:57.444Z,2.60
2017-06-08T03:25:25.735Z,3.03
2017-06-08T03:27:54.015Z,3.20
2017-06-08T03:30:22.327Z,2.78
2017-06-08T03:32:51.375Z,3.42
2017-06-08T03:35:19.660Z,2.40
2017-06-08T03:37:47.928Z,2.55
2017-06-08T03:40:16.220Z,2.80
2017-06-08T03:42:44.482Z,3.05
2017-06-08T03:45:12.794Z,3.42
2017-06-08T03:47:41.069Z,3.50
2017-06-08T03:50:09.363Z,3.72
2017-06-08T03:52:38.474Z,3.62
2017-06-08T03:55:07.555Z,2.70
2017-06-08T03:57:35.833Z,3.12
2017-06-08T04:00:04.888Z,3.00
2017-06-08T04:02:33.170Z,3.65
2017-06-08T04:05:01.459Z,3.50
2017-06-08T04:07:29.728Z,3.87
2017-06-08T04:09:57.999Z,2.90
2017-06-08T04:12:26.283Z,3.60
2017-06-08T04:14:54.554Z,3.10
2017-06-08T04:17:22.835Z,3.65
2017-06-08T04:19:51.108Z,3.30
2017-06-08T04:22:19.412Z,3.45
2017-06-08T04:24:48.466Z,3.40
2017-06-08T04:27:16.745Z,3.67
2017-06-08T04:29:45.024Z,4.50
2017-06-08T04:32:13.312Z,3.78
2017-06-08T04:34:41.593Z,3.03
2017-06-08T04:37:09.893Z,3.72
2017-06-08T04:39:38.192Z,3.47
2017-06-08T04:42:06.492Z,4.05
2017-06-08T04:44:34.806Z,3.87
2017-06-08T04:47:03.077Z,3.15
2017-06-08T04:49:31.359Z,3.22
2017-06-08T04:51:59.733Z,3.28
2017-06-08T04:54:28.024Z,3.25
2017-06-08T04:56:56.304Z,3.47
2017-06-08T04:59:24.615Z,3.80
2017-06-08T05:01:52.882Z,3.65
2017-06-08T05:04:21.950Z,2.75
2017-06-08T05:06:50.256Z,3.28
2017-06-08T05:09:18.573Z,3.87
2017-06-08T05:11:46.858Z,3.00
2017-06-08T05:14:15.178Z,3.37
2017-06-08T05:16:43.468Z,2.90
2017-06-08T05:19:11.876Z,3.10
2017-06-08T05:21:40.210Z,3.22
2017-06-08T05:24:09.270Z,3.33
2017-06-08T05:26:37.566Z,3.25
2017-06-08T05:29:05.839Z,2.90
2017-06-08T05:31:34.136Z,3.08
2017-06-08T05:34:02.425Z,3.25
2017-06-08T05:36:31.489Z,3.42
2017-06-08T05:38:59.761Z,2.95
2017-06-08T05:41:28.074Z,3.17
2017-06-08T05:43:56.352Z,3.10
2017-06-08T05:46:24.627Z,3.80
2017-06-08T05:48:53.744Z,4.10
2017-06-08T05:51:22.072Z,3.70
2017-06-08T05:53:50.372Z,3.10
2017-06-08T05:56:18.652Z,3.28
2017-06-08T05:58:47.715Z,3.50
2017-06-08T06:01:16.003Z,3.72
2017-06-08T06:03:44.304Z,4.57
2017-06-08T06:06:12.585Z,4.12
2017-06-08T06:08:40.901Z,3.40
2017-06-08T06:11:09.184Z,3.33
2017-06-08T06:13:37.482Z,2.87
2017-06-08T06:16:05.749Z,3.33
2017-06-08T06:18:34.061Z,3.75
2017-06-08T06:21:03.132Z,3.87
2017-06-08T06:23:31.406Z,3.53
2017-06-08T06:25:59.713Z,3.47
2017-06-08T06:28:27.992Z,3.65
2017-06-08T06:30:56.287Z,3.50
2017-06-08T06:33:24.584Z,3.28
2017-06-08T06:35:52.877Z,3.37
2017-06-08T06:38:21.169Z,3.70
2017-06-08T06:40:49.456Z,3.22
2017-06-08T06:43:17.749Z,3.12
2017-06-08T06:45:46.823Z,3.62
2017-06-08T06:48:15.091Z,3.33
2017-06-08T06:50:43.397Z,3.75
2017-06-08T06:53:12.444Z,3.40
2017-06-08T06:55:40.749Z,3.10
2017-06-08T06:58:09.033Z,3.53
2017-06-08T07:00:37.371Z,3.45
2017-06-08T07:03:05.713Z,2.50
2017-06-08T07:05:34.749Z,3.37
2017-06-08T07:08:03.041Z,2.90
2017-06-08T07:10:31.327Z,4.22
2017-06-08T07:12:59.614Z,3.10
2017-06-08T07:15:27.912Z,3.58
2017-06-08T07:17:56.288Z,3.00
2017-06-08T07:20:25.332Z,3.17
2017-06-08T07:22:53.630Z,3.05
2017-06-08T07:25:21.937Z,3.55
2017-06-08T07:27:50.268Z,3.10
2017-06-08T07:30:18.547Z,2.70
2017-06-08T07:32:46.841Z,2.42
2017-06-08T07:35:15.249Z,2.40
2017-06-08T07:37:43.559Z,2.75
2017-06-08T07:40:11.840Z,2.25
2017-06-08T07:42:40.240Z,2.83
2017-06-08T07:45:08.514Z,2.40
2017-06-08T07:47:36.860Z,2.53
2017-06-08T07:50:05.184Z,2.80
2017-06-08T07:52:33.568Z,1.90
2017-06-08T07:55:01.864Z,2.37
2017-06-08T07:57:30.175Z,2.80
2017-06-08T07:59:58.477Z,2.45
2017-06-08T08:02:38.623Z,2.45
2017-06-08T08:05:06.920Z,2.12
2017-06-08T08:07:35.283Z,2.45
2017-06-08T08:10:03.677Z,2.40
2017-06-08T08:12:31.986Z,2.30
2017-06-08T08:15:00.810Z,2.40
2017-06-08T08:17:29.262Z,2.15
2017-06-08T08:19:57.548Z,2.00
2017-06-08T08:22:25.828Z,2.05
2017-06-08T08:24:54.153Z,2.83
2017-06-08T08:27:22.432Z,2.20
2017-06-08T08:29:50.724Z,2.33
2017-06-08T08:32:19.113Z,2.25
2017-06-08T08:34:47.457Z,2.28
2017-06-08T08:37:16.370Z,2.05
2017-06-08T08:39:44.964Z,2.08
2017-06-08T08:42:13.382Z,2.00
2017-06-08T08:44:41.942Z,2.08
2017-06-08T08:47:11.081Z,1.80
2017-06-08T08:49:40.897Z,1.87
2017-06-08T08:52:11.722Z,2.28
2017-06-08T08:54:39.999Z,1.70
2017-06-08T08:57:08.360Z,2.10
2017-06-08T08:59:36.639Z,2.25
2017-06-08T09:02:05.693Z,1.60
2017-06-08T09:04:33.972Z,1.75
2017-06-08T09:07:02.273Z,1.83
2017-06-08T09:09:30.549Z,2.17
2017-06-08T09:11:58.852Z,1.80
2017-06-08T09:14:27.903Z,2.15
2017-06-08T09:16:56.180Z,2.37
2017-06-08T09:19:24.477Z,1.60
2017-06-08T09:21:52.756Z,1.60
2017-06-08T09:24:21.053Z,1.92
2017-06-08T09:26:50.090Z,3.03
2017-06-08T09:29:18.385Z,1.80
2017-06-08T09:31:46.662Z,2.30
2017-06-08T09:34:14.951Z,2.00
2017-06-08T09:36:43.232Z,1.80
2017-06-08T09:39:11.519Z,1.85
2017-06-08T09:41:39.800Z,1.80
2017-06-08T09:44:08.861Z,1.70
2017-06-08T09:46:37.135Z,1.92
2017-06-08T09:49:05.425Z,1.92
2017-06-08T09:51:34.464Z,2.08
2017-06-08T09:54:02.774Z,1.45
2017-06-08T09:56:31.042Z,1.67
2017-06-08T09:58:59.310Z,1.90
2017-06-08T10:01:27.611Z,2.00
2017-06-08T10:03:55.991Z,1.60
2017-06-08T10:06:24.273Z,1.80
2017-06-08T10:08:52.544Z,1.52
2017-06-08T10:11:20.854Z,1.58
2017-06-08T10:13:49.891Z,1.85
2017-06-08T10:16:18.213Z,6.82
2017-06-08T10:18:47.256Z,1.80
2017-06-08T10:21:15.555Z,2.10
2017-06-08T10:23:43.844Z,1.70
2017-06-08T10:26:12.144Z,1.80
2017-06-08T10:28:40.417Z,1.20
2017-06-08T10:31:08.720Z,1.50
2017-06-08T10:33:37.004Z,1.52
2017-06-08T10:36:05.318Z,1.37
2017-06-08T10:38:33.600Z,1.58
2017-06-08T10:41:01.878Z,1.70
2017-06-08T10:43:30.177Z,1.73
2017-06-08T10:45:58.456Z,1.30
2017-06-08T10:48:27.535Z,1.62
2017-06-08T10:50:55.812Z,1.70
2017-06-08T10:53:24.100Z,1.85
2017-06-08T10:55:52.382Z,1.67
2017-06-08T10:58:20.709Z,1.55
2017-06-08T11:00:48.986Z,1.42
2017-06-08T11:03:17.280Z,1.60
2017-06-08T11:05:45.562Z,1.60
2017-06-08T11:08:13.861Z,1.90
2017-06-08T11:10:42.137Z,1.35
2017-06-08T11:13:10.456Z,1.87
2017-06-08T11:15:38.736Z,1.77
2017-06-08T11:18:07.029Z,1.80
2017-06-08T11:20:35.349Z,2.00
2017-06-08T11:23:03.641Z,2.05
2017-06-08T11:25:31.945Z,1.65
2017-06-08T11:28:00.224Z,1.45
2017-06-08T11:30:28.536Z,2.15
2017-06-08T11:32:56.812Z,1.40
2017-06-08T11:35:25.100Z,1.90
2017-06-08T11:37:53.385Z,1.95
2017-06-08T11:40:21.687Z,1.52
2017-06-08T11:42:50.725Z,1.90
2017-06-08T11:45:19.012Z,1.83
2017-06-08T11:47:47.289Z,2.22
2017-06-08T11:50:15.581Z,1.60
2017-06-08T11:52:43.904Z,1.67
2017-06-08T11:55:12.209Z,2.10
2017-06-08T11:57:40.480Z,1.85
2017-06-08T12:00:08.801Z,2.12
2017-06-08T12:02:37.073Z,2.00
2017-06-08T12:05:05.350Z,2.30
2017-06-08T12:07:33.644Z,2.00
2017-06-08T12:10:02.700Z,1.80
2017-06-08T12:12:30.993Z,2.05
2017-06-08T12:14:59.284Z,1.87
2017-06-08T12:17:27.579Z,1.92
2017-06-08T12:19:56.644Z,2.10
2017-06-08T12:22:24.937Z,1.90
2017-06-08T12:24:53.988Z,1.90
2017-06-08T12:27:22.284Z,1.80
2017-06-08T12:29:50.577Z,1.80
2017-06-08T12:32:18.872Z,1.77
2017-06-08T12:34:47.154Z,2.15
2017-06-08T12:37:16.245Z,1.75
2017-06-08T12:39:44.527Z,2.00
2017-06-08T12:42:13.566Z,2.03
2017-06-08T12:44:41.861Z,1.75
2017-06-08T12:47:10.152Z,1.90
2017-06-08T12:49:38.441Z,2.03
2017-06-08T12:52:06.720Z,2.03
2017-06-08T12:54:35.089Z,2.15
2017-06-08T12:57:03.368Z,2.50
2017-06-08T12:59:31.673Z,2.00
2017-06-08T13:01:59.947Z,1.85
2017-06-08T13:04:28.238Z,1.92
2017-06-08T13:06:56.520Z,2.05
2017-06-08T13:09:24.825Z,1.92
2017-06-08T13:11:53.103Z,1.95
2017-06-08T13:14:21.416Z,2.80
2017-06-08T13:16:50.483Z,2.37
2017-06-08T13:19:18.785Z,2.20
2017-06-08T13:21:47.836Z,1.77
2017-06-08T13:24:16.188Z,2.37
2017-06-08T13:26:44.465Z,2.40
2017-06-08T13:29:12.820Z,2.28
2017-06-08T13:31:41.059Z,1.65
2017-06-08T13:34:09.337Z,1.70
2017-06-08T13:36:37.628Z,2.22
2017-06-08T13:39:05.904Z,2.20
2017-06-08T13:41:34.197Z,2.33
2017-06-08T13:44:02.479Z,1.90
2017-06-08T13:46:30.774Z,1.87
2017-06-08T13:48:59.052Z,2.20
2017-06-08T13:51:27.348Z,2.47
2017-06-08T13:53:55.631Z,2.05
2017-06-08T13:56:23.923Z,2.55
2017-06-08T13:58:52.215Z,1.80
2017-06-08T14:01:20.512Z,1.77
2017-06-08T14:03:48.789Z,1.95
2017-06-08T14:06:17.078Z,1.65
2017-06-08T14:08:45.351Z,1.70
2017-06-08T14:11:14.240Z,2.30
2017-06-08T14:13:42.543Z,2.00
2017-06-08T14:16:10.839Z,2.40
2017-06-08T14:18:39.945Z,2.05
2017-06-08T14:21:09.376Z,1.75
2017-06-08T14:23:37.676Z,1.77
2017-06-08T14:26:05.962Z,1.83
2017-06-08T14:28:34.267Z,1.80
2017-06-08T14:31:02.532Z,1.85
2017-06-08T14:33:30.831Z,2.05
2017-06-08T14:35:59.119Z,1.87
2017-06-08T14:38:27.443Z,1.75
2017-06-08T14:40:55.735Z,1.77
2017-06-08T14:43:24.061Z,2.15
2017-06-08T14:45:52.347Z,1.90
2017-06-08T14:48:20.889Z,2.28
2017-06-08T14:50:49.176Z,2.08
2017-06-08T14:53:17.452Z,1.83
2017-06-08T14:55:49.000Z,2.00
2017-06-08T14:58:18.873Z,1.90
2017-06-08T15:00:47.173Z,2.00
2017-06-08T15:03:15.447Z,1.80
2017-06-08T15:05:43.740Z,2.30
2017-06-08T15:08:12.026Z,1.60
2017-06-08T15:10:40.336Z,1.73
2017-06-08T15:13:09.384Z,1.85
2017-06-08T15:15:37.676Z,1.80
2017-06-08T15:18:06.004Z,1.77
2017-06-08T15:20:34.334Z,2.20
2017-06-08T15:23:02.609Z,1.50
2017-06-08T15:25:31.171Z,1.55
2017-06-08T15:27:59.508Z,1.80
2017-06-08T15:30:27.816Z,1.50
2017-06-08T15:32:56.109Z,2.00
2017-06-08T15:35:24.433Z,1.92
2017-06-08T15:37:52.941Z,1.85
2017-06-08T15:40:21.481Z,2.12
2017-06-08T15:42:49.784Z,2.20
2017-06-08T15:45:18.076Z,2.10
2017-06-08T15:47:46.474Z,1.42
2017-06-08T15:50:14.778Z,1.80
2017-06-08T15:52:43.183Z,1.60
2017-06-08T15:55:11.718Z,2.08
2017-06-08T15:57:40.133Z,2.25
2017-06-08T16:00:08.421Z,1.75
2017-06-08T16:02:36.770Z,1.70
2017-06-08T16:05:05.046Z,1.60
2017-06-08T16:07:33.371Z,2.00
2017-06-08T16:10:02.427Z,2.00
2017-06-08T16:12:30.708Z,2.05
2017-06-08T16:14:59.000Z,2.15
2017-06-08T16:17:27.335Z,3.22
2017-06-08T16:19:55.833Z,1.70
2017-06-08T16:22:24.951Z,1.95
2017-06-08T16:24:53.225Z,1.85
2017-06-08T16:27:21.499Z,2.20
2017-06-08T16:29:49.803Z,1.77
2017-06-08T16:32:18.106Z,1.70
2017-06-08T16:34:56.669Z,1.92
2017-06-08T16:37:35.011Z,1.83
2017-06-08T16:40:16.160Z,1.70
2017-06-08T16:42:55.986Z,1.98
2017-06-08T16:45:34.671Z,2.05
2017-06-08T16:48:06.996Z,1.98
2017-06-08T16:50:46.868Z,2.03
2017-06-08T16:53:28.906Z,1.90
2017-06-08T16:56:18.391Z,1.83
2017-06-08T16:58:56.741Z,2.30
2017-06-08T17:01:38.185Z,2.00
2017-06-08T17:04:17.234Z,2.00
2017-06-08T17:06:47.365Z,2.15
2017-06-08T17:09:21.505Z,1.92
2017-06-08T17:11:58.326Z,1.98
2017-06-08T17:14:34.937Z,1.80
2017-06-08T17:17:11.771Z,2.10
2017-06-08T17:19:52.727Z,2.25
2017-06-08T17:22:31.827Z,2.03
2017-06-08T17:25:16.592Z,1.52
2017-06-08T17:30:36.407Z,2.10
2017-06-08T17:33:20.170Z,1.77
2017-06-08T17:35:56.333Z,1.70
2017-06-08T17:38:32.898Z,2.00
2017-06-08T17:41:08.183Z,2.28
2017-06-08T17:43:59.291Z,2.20
2017-06-08T17:49:17.988Z,2.40
2017-06-08T17:51:55.373Z,1.70
2017-06-08T17:54:34.241Z,2.10
2017-06-08T17:57:18.001Z,1.90
2017-06-08T17:59:50.872Z,2.17
2017-06-08T18:02:25.428Z,2.20
2017-06-08T18:05:03.156Z,2.58
2017-06-08T18:07:40.136Z,2.30
2017-06-08T18:10:15.435Z,2.08
2017-06-08T18:12:56.892Z,2.42
2017-06-08T18:16:07.804Z,2.97
2017-06-08T18:18:42.884Z,1.85
2017-06-08T18:21:26.994Z,2.80
2017-06-08T18:24:04.858Z,1.90
2017-06-08T18:26:44.387Z,1.90
2017-06-08T18:29:26.020Z,2.05
2017-06-08T18:32:04.334Z,2.10
2017-06-08T18:34:52.815Z,2.55
2017-06-08T18:37:35.627Z,2.40
2017-06-08T18:40:14.931Z,2.53
2017-06-08T18:42:54.413Z,2.83
2017-06-08T18:45:23.776Z,2.22
2017-06-08T18:47:52.080Z,2.35
2017-06-08T18:50:20.367Z,2.55
2017-06-08T18:52:48.693Z,2.30
2017-06-08T18:55:16.966Z,2.05
2017-06-08T18:57:45.286Z,2.33
2017-06-08T19:00:13.652Z,2.25
2017-06-08T19:02:42.756Z,2.20
2017-06-08T19:05:11.044Z,2.45
2017-06-08T19:07:39.439Z,2.80
2017-06-08T19:10:07.708Z,3.03
2017-06-08T19:12:36.006Z,2.70
2017-06-08T19:15:04.307Z,3.53
2017-06-08T19:17:32.584Z,3.00
2017-06-08T19:20:00.890Z,3.70
2017-06-08T19:22:29.259Z,4.00
2017-06-08T19:24:57.596Z,4.75
2017-06-08T19:27:25.856Z,4.30
2017-06-08T19:29:54.167Z,4.37
2017-06-08T19:32:22.460Z,4.20
2017-06-08T19:34:50.747Z,3.60
2017-06-08T19:37:19.827Z,3.05
2017-06-08T19:39:48.124Z,3.78
2017-06-08T19:42:16.484Z,3.22
2017-06-08T19:44:44.787Z,3.95
2017-06-08T19:47:13.124Z,3.87
2017-06-08T19:49:41.453Z,3.55
2017-06-08T19:52:09.753Z,3.90
2017-06-08T19:54:38.053Z,3.22
2017-06-08T19:57:06.319Z,3.15
2017-06-08T19:59:34.613Z,3.40
2017-06-08T20:02:02.901Z,3.20
2017-06-08T20:04:31.200Z,3.00
2017-06-08T20:06:59.476Z,3.70
2017-06-08T20:09:27.768Z,2.80
2017-06-08T20:11:56.061Z,3.42
2017-06-08T20:14:24.343Z,3.25
2017-06-08T20:16:52.644Z,3.67
2017-06-08T20:19:20.934Z,2.47
2017-06-08T20:21:50.021Z,3.70
2017-06-08T20:24:18.359Z,3.10
2017-06-08T20:26:46.737Z,2.85
2017-06-08T20:29:15.036Z,2.90
2017-06-08T20:31:43.332Z,3.53
2017-06-08T20:34:11.651Z,3.22
2017-06-08T20:36:39.950Z,3.47
2017-06-08T20:39:08.233Z,3.10
2017-06-08T20:41:36.520Z,3.78
2017-06-08T20:44:04.795Z,3.53
2017-06-08T20:46:33.104Z,3.42
2017-06-08T20:49:01.389Z,2.70
2017-06-08T20:51:30.436Z,3.00
2017-06-08T20:53:58.792Z,3.10
2017-06-08T20:56:27.077Z,3.33
2017-06-08T20:58:55.880Z,2.85
2017-06-08T21:01:24.182Z,3.28
2017-06-08T21:03:52.476Z,3.15
2017-06-08T21:06:20.761Z,3.10
2017-06-08T21:08:49.056Z,3.70
2017-06-08T21:11:17.330Z,3.72
2017-06-08T21:13:45.626Z,3.83
2017-06-08T21:16:13.913Z,3.85
2017-06-08T21:18:42.212Z,3.67
2017-06-08T21:21:10.513Z,3.97
2017-06-08T21:23:38.809Z,3.60
2017-06-08T21:26:07.113Z,3.85
2017-06-08T21:28:35.583Z,3.90
2017-06-08T21:31:03.856Z,3.78
2017-06-08T21:33:32.160Z,3.53
2017-06-08T21:36:00.437Z,3.62
2017-06-08T21:38:28.708Z,4.43
2017-06-08T21:40:57.016Z,4.10
2017-06-08T21:43:25.297Z,3.30
2017-06-08T21:45:53.611Z,3.85
2017-06-08T21:48:21.901Z,3.80
2017-06-08T21:50:50.441Z,3.95
2017-06-08T21:53:18.782Z,3.87
2017-06-08T21:55:47.075Z,3.67
2017-06-08T21:58:15.351Z,4.07
2017-06-08T22:00:43.664Z,4.00
2017-06-08T22:03:11.977Z,3.58
2017-06-08T22:05:40.269Z,3.55
2017-06-08T22:08:08.565Z,3.75
2017-06-08T22:10:36.853Z,3.80
2017-06-08T22:13:05.132Z,4.22
2017-06-08T22:15:33.480Z,3.53
2017-06-08T22:18:01.756Z,3.83
2017-06-08T22:20:30.052Z,5.00
2017-06-08T22:22:58.356Z,5.50
2017-06-08T22:25:26.717Z,4.72
2017-06-08T22:27:55.002Z,3.62
2017-06-08T22:30:23.305Z,3.95
2017-06-08T22:32:52.389Z,3.45
2017-06-08T22:35:20.670Z,3.50
2017-06-08T22:37:48.972Z,3.53
2017-06-08T22:40:17.352Z,3.33
2017-06-08T22:42:45.754Z,4.18
2017-06-08T22:45:14.036Z,3.70
2017-06-08T22:47:42.327Z,3.90
2017-06-08T22:50:10.625Z,4.05
2017-06-08T22:52:38.953Z,3.47
2017-06-08T22:55:07.235Z,3.12
2017-06-08T22:57:35.580Z,3.87
2017-06-08T23:00:04.619Z,3.70
2017-06-08T23:02:32.907Z,4.00
2017-06-08T23:05:01.272Z,3.33
2017-06-08T23:07:29.550Z,4.00
2017-06-08T23:09:57.858Z,3.60
2017-06-08T23:12:26.147Z,3.78
2017-06-08T23:14:54.440Z,3.80
2017-06-08T23:17:22.725Z,5.20
2017-06-08T23:19:51.024Z,3.95
2017-06-08T23:22:19.305Z,4.00
2017-06-08T23:24:47.608Z,4.07
2017-06-08T23:27:15.899Z,4.22
2017-06-08T23:29:44.232Z,4.47
2017-06-08T23:32:12.553Z,4.20
2017-06-08T23:34:40.896Z,4.50
2017-06-08T23:37:09.193Z,4.32
2017-06-08T23:39:37.468Z,4.12
2017-06-08T23:42:05.784Z,4.70
2017-06-08T23:44:34.845Z,4.75
2017-06-08T23:47:03.152Z,4.95
2017-06-08T23:49:32.209Z,5.20
2017-06-08T23:52:00.539Z,4.35
2017-06-08T23:54:28.833Z,5.50
2017-06-08T23:56:57.148Z,5.30
2017-06-08T23:59:25.425Z,5.80
